Tabora, Tabora Airport (HTTB)

NameTabora Airport
CityTabora
CountryUnited Republic of Tanzania
ICAOHTTB
IATATBO
Altitude1179 m
CoordinatesGoogle Map
Live Air TrafficLiveATC.net
METARHTTB 131100Z 17005KT 9999 FEW022 FEW023CB SCT080 28/19 Q1019 NOSIG
2019-03-13 11:00:00 Wind: South-Southeast (170°) 2.57 m/s - Visibility: > 10000 m - Temperature: 28 °C - Dew point: 19 °C - Humidity: 58.1% - Pressure: 1019 hPa

Sorry, no flights used the airport in this database.